createdAt,value
2018-09-15T00:00:48.055Z,997.30
2018-09-15T00:01:48.155Z,997.32
2018-09-15T00:02:48.248Z,997.35
2018-09-15T00:03:48.341Z,997.36
2018-09-15T00:04:48.437Z,997.33
2018-09-15T00:05:48.530Z,997.32
2018-09-15T00:06:48.624Z,997.36
2018-09-15T00:07:48.718Z,997.36
2018-09-15T00:08:48.816Z,997.35
2018-09-15T00:09:48.911Z,997.32
2018-09-15T00:10:49.004Z,997.30
2018-09-15T00:11:49.100Z,997.32
2018-09-15T00:12:49.195Z,997.35
2018-09-15T00:13:49.290Z,997.38
2018-09-15T00:14:49.387Z,997.34
2018-09-15T00:15:49.480Z,997.39
2018-09-15T00:16:49.573Z,997.40
2018-09-15T00:17:49.703Z,997.42
2018-09-15T00:18:49.763Z,997.43
2018-09-15T00:19:49.860Z,997.46
2018-09-15T00:20:49.955Z,997.46
2018-09-15T00:21:50.049Z,997.44
2018-09-15T00:22:50.147Z,997.43
2018-09-15T00:23:50.240Z,997.39
2018-09-15T00:24:50.334Z,997.39
2018-09-15T00:25:50.433Z,997.41
2018-09-15T00:26:50.524Z,997.36
2018-09-15T00:27:50.619Z,997.36
2018-09-15T00:28:50.704Z,997.36
2018-09-15T00:29:50.797Z,997.34
2018-09-15T00:30:50.893Z,997.33
2018-09-15T00:31:50.989Z,997.36
2018-09-15T00:32:51.084Z,997.34
2018-09-15T00:33:51.181Z,997.30
2018-09-15T00:34:51.285Z,997.33
2018-09-15T00:35:51.381Z,997.31
2018-09-15T00:36:51.474Z,997.30
2018-09-15T00:37:51.572Z,997.33
2018-09-15T00:38:51.675Z,997.33
2018-09-15T00:39:51.764Z,997.29
2018-09-15T00:40:51.861Z,997.30
2018-09-15T00:41:51.999Z,997.29
2018-09-15T00:42:52.053Z,997.30
2018-09-15T00:43:52.147Z,997.34
2018-09-15T00:44:52.241Z,997.34
2018-09-15T00:45:52.336Z,997.29
2018-09-15T00:46:52.431Z,997.28
2018-09-15T00:47:52.527Z,997.29
2018-09-15T00:48:52.621Z,997.26
2018-09-15T00:49:52.714Z,997.30
2018-09-15T00:50:52.808Z,997.29
2018-09-15T00:51:52.904Z,997.30
2018-09-15T00:52:53.000Z,997.38
2018-09-15T00:53:53.093Z,997.30
2018-09-15T00:54:53.188Z,997.37
2018-09-15T00:55:53.283Z,997.35
2018-09-15T00:56:53.384Z,997.34
2018-09-15T00:57:53.471Z,997.32
2018-09-15T00:58:53.565Z,997.34
2018-09-15T00:59:53.659Z,997.33
2018-09-15T01:00:53.757Z,997.34
2018-09-15T01:01:53.855Z,997.39
2018-09-15T01:02:53.944Z,997.39
2018-09-15T01:03:54.039Z,997.39
2018-09-15T01:04:54.132Z,997.38
2018-09-15T01:05:54.226Z,997.40
2018-09-15T01:06:54.321Z,997.41
2018-09-15T01:07:54.415Z,997.43
2018-09-15T01:08:54.511Z,997.45
2018-09-15T01:09:54.606Z,997.48
2018-09-15T01:10:54.699Z,997.44
2018-09-15T01:11:54.793Z,997.50
2018-09-15T01:12:54.888Z,997.49
2018-09-15T01:13:55.017Z,997.47
2018-09-15T01:14:55.075Z,997.45
2018-09-15T01:15:55.171Z,997.46
2018-09-15T01:16:55.265Z,997.46
2018-09-15T01:17:55.358Z,997.47
2018-09-15T01:18:55.463Z,997.46
2018-09-15T01:19:55.560Z,997.44
2018-09-15T01:20:55.652Z,997.46
2018-09-15T01:21:55.743Z,997.42
2018-09-15T01:22:55.835Z,997.42
2018-09-15T01:23:55.930Z,997.45
2018-09-15T01:24:56.025Z,997.46
2018-09-15T01:25:56.129Z,997.47
2018-09-15T01:26:56.214Z,997.44
2018-09-15T01:27:56.304Z,997.46
2018-09-15T01:28:56.396Z,997.49
2018-09-15T01:29:56.489Z,997.48
2018-09-15T01:30:56.585Z,997.50
2018-09-15T01:31:56.683Z,997.51
2018-09-15T01:32:56.780Z,997.48
2018-09-15T01:33:56.893Z,997.51
2018-09-15T01:34:56.984Z,997.50
2018-09-15T01:35:57.082Z,997.47
2018-09-15T01:36:57.174Z,997.50
2018-09-15T01:37:57.267Z,997.47
2018-09-15T01:38:57.360Z,997.54
2018-09-15T01:39:57.452Z,997.52
2018-09-15T01:40:57.546Z,997.51
2018-09-15T01:41:57.644Z,997.55
2018-09-15T01:42:57.739Z,997.54
2018-09-15T01:43:57.833Z,997.54
2018-09-15T01:44:57.930Z,997.54
2018-09-15T01:45:58.025Z,997.53
2018-09-15T01:46:58.121Z,997.53
2018-09-15T01:47:58.215Z,997.56
2018-09-15T01:48:58.307Z,997.58
2018-09-15T01:49:58.400Z,997.59
2018-09-15T01:50:58.496Z,997.57
2018-09-15T01:51:58.592Z,997.55
2018-09-15T01:52:58.684Z,997.60
2018-09-15T01:53:58.777Z,997.55
2018-09-15T01:54:58.872Z,997.57
2018-09-15T01:55:58.966Z,997.56
2018-09-15T01:56:59.062Z,997.62
2018-09-15T01:57:59.155Z,997.55
2018-09-15T01:58:59.250Z,997.58
2018-09-15T01:59:59.342Z,997.59
2018-09-15T02:00:59.434Z,997.59
2018-09-15T02:01:59.529Z,997.61
2018-09-15T02:02:59.621Z,997.60
2018-09-15T02:03:59.720Z,997.62
2018-09-15T02:04:59.814Z,997.58
2018-09-15T02:05:59.907Z,997.56
2018-09-15T02:07:00.000Z,997.58
2018-09-15T02:08:00.101Z,997.57
2018-09-15T02:09:00.192Z,997.59
2018-09-15T02:10:00.282Z,997.56
2018-09-15T02:11:00.399Z,997.57
2018-09-15T02:12:00.470Z,997.54
2018-09-15T02:13:00.569Z,997.59
2018-09-15T02:14:00.663Z,997.60
2018-09-15T02:15:00.757Z,997.58
2018-09-15T02:16:00.850Z,997.60
2018-09-15T02:17:00.944Z,997.65
2018-09-15T02:18:01.038Z,997.64
2018-09-15T02:19:01.132Z,997.62
2018-09-15T02:20:01.227Z,997.62
2018-09-15T02:21:01.318Z,997.63
2018-09-15T02:22:01.411Z,997.63
2018-09-15T02:23:01.540Z,997.62
2018-09-15T02:24:01.600Z,997.65
2018-09-15T02:25:01.694Z,997.65
2018-09-15T02:26:01.784Z,997.68
2018-09-15T02:27:01.877Z,997.67
2018-09-15T02:28:01.971Z,997.71
2018-09-15T02:29:02.099Z,997.70
2018-09-15T02:30:02.166Z,997.75
2018-09-15T02:31:02.256Z,997.78
2018-09-15T02:32:02.346Z,997.78
2018-09-15T02:33:02.441Z,997.80
2018-09-15T02:34:02.530Z,997.85
2018-09-15T02:35:02.625Z,997.82
2018-09-15T02:36:02.719Z,997.89
2018-09-15T02:37:02.810Z,997.86
2018-09-15T02:38:02.907Z,997.86
2018-09-15T02:39:03.012Z,997.85
2018-09-15T02:40:03.111Z,997.83
2018-09-15T02:41:03.197Z,997.83
2018-09-15T02:42:03.295Z,997.88
2018-09-15T02:43:03.386Z,997.82
2018-09-15T02:44:03.477Z,997.88
2018-09-15T02:45:03.571Z,997.85
2018-09-15T02:46:03.660Z,997.81
2018-09-15T02:47:03.763Z,997.87
2018-09-15T02:48:03.855Z,997.85
2018-09-15T02:49:03.946Z,997.86
2018-09-15T02:50:04.039Z,997.83
2018-09-15T02:51:04.132Z,997.82
2018-09-15T02:52:04.231Z,997.86
2018-09-15T02:53:04.327Z,997.87
2018-09-15T02:54:04.416Z,997.88
2018-09-15T02:55:04.512Z,997.86
2018-09-15T02:56:04.605Z,997.85
2018-09-15T02:57:04.709Z,997.86
2018-09-15T02:58:04.790Z,997.86
2018-09-15T02:59:04.886Z,997.88
2018-09-15T03:00:04.982Z,997.91
2018-09-15T03:01:05.071Z,997.92
2018-09-15T03:02:05.163Z,997.93
2018-09-15T03:03:05.257Z,997.95
2018-09-15T03:04:05.347Z,997.96
2018-09-15T03:05:05.442Z,998.01
2018-09-15T03:06:05.533Z,997.97
2018-09-15T03:07:05.633Z,997.98
2018-09-15T03:08:05.721Z,998.02
2018-09-15T03:09:05.816Z,998.00
2018-09-15T03:10:05.909Z,998.01
2018-09-15T03:11:06.003Z,998.00
2018-09-15T03:12:06.092Z,997.99
2018-09-15T03:13:06.183Z,998.00
2018-09-15T03:14:06.276Z,997.98
2018-09-15T03:15:06.367Z,997.96
2018-09-15T03:16:06.461Z,997.98
2018-09-15T03:17:06.558Z,998.00
2018-09-15T03:18:06.649Z,997.97
2018-09-15T03:19:06.741Z,997.99
2018-09-15T03:20:06.837Z,997.99
2018-09-15T03:21:06.930Z,997.98
2018-09-15T03:22:07.020Z,998.00
2018-09-15T03:23:07.122Z,998.01
2018-09-15T03:24:07.207Z,997.99
2018-09-15T03:25:07.301Z,998.00
2018-09-15T03:26:07.393Z,998.01
2018-09-15T03:27:07.485Z,998.01
2018-09-15T03:28:07.579Z,998.05
2018-09-15T03:29:07.670Z,998.02
2018-09-15T03:30:07.763Z,998.04
2018-09-15T03:31:07.856Z,998.06
2018-09-15T03:32:07.951Z,998.08
2018-09-15T03:33:08.043Z,998.08
2018-09-15T03:34:08.142Z,998.08
2018-09-15T03:35:08.235Z,998.08
2018-09-15T03:36:08.330Z,998.05
2018-09-15T03:37:08.421Z,998.07
2018-09-15T03:38:08.513Z,998.06
2018-09-15T03:39:08.607Z,998.05
2018-09-15T03:40:08.697Z,998.11
2018-09-15T03:41:08.795Z,998.12
2018-09-15T03:42:08.891Z,998.10
2018-09-15T03:43:08.979Z,998.15
2018-09-15T03:44:09.068Z,998.13
2018-09-15T03:45:09.184Z,998.12
2018-09-15T03:46:09.258Z,998.12
2018-09-15T03:47:09.350Z,998.12
2018-09-15T03:48:09.444Z,998.12
2018-09-15T03:49:09.535Z,998.13
2018-09-15T03:50:09.631Z,998.12
2018-09-15T03:51:09.729Z,998.15
2018-09-15T03:52:09.821Z,998.15
2018-09-15T03:53:09.916Z,998.09
2018-09-15T03:54:10.011Z,998.14
2018-09-15T03:55:10.101Z,998.12
2018-09-15T03:56:10.192Z,998.15
2018-09-15T03:57:10.293Z,998.16
2018-09-15T03:58:10.377Z,998.14
2018-09-15T03:59:10.470Z,998.12
2018-09-15T04:00:10.565Z,998.14
2018-09-15T04:01:10.652Z,998.17
2018-09-15T04:02:10.748Z,998.18
2018-09-15T04:03:10.857Z,998.14
2018-09-15T04:04:10.951Z,998.17
2018-09-15T04:05:11.043Z,998.18
2018-09-15T04:06:11.139Z,998.16
2018-09-15T04:07:11.229Z,998.19
2018-09-15T04:08:11.324Z,998.22
2018-09-15T04:09:11.416Z,998.21
2018-09-15T04:10:11.508Z,998.20
2018-09-15T04:11:11.606Z,998.20
2018-09-15T04:12:11.696Z,998.25
2018-09-15T04:13:11.784Z,998.24
2018-09-15T04:14:11.878Z,998.24
2018-09-15T04:15:11.968Z,998.23
2018-09-15T04:16:12.057Z,998.25
2018-09-15T04:17:12.153Z,998.26
2018-09-15T04:18:12.245Z,998.27
2018-09-15T04:19:12.337Z,998.28
2018-09-15T04:20:12.433Z,998.30
2018-09-15T04:21:12.525Z,998.34
2018-09-15T04:22:12.618Z,998.34
2018-09-15T04:23:12.709Z,998.34
2018-09-15T04:24:12.805Z,998.39
2018-09-15T04:25:12.895Z,998.38
2018-09-15T04:26:12.989Z,998.41
2018-09-15T04:27:13.084Z,998.43
2018-09-15T04:28:13.167Z,998.46
2018-09-15T04:29:13.263Z,998.47
2018-09-15T04:30:13.350Z,998.45
2018-09-15T04:31:13.445Z,998.46
2018-09-15T04:32:13.540Z,998.45
2018-09-15T04:33:13.633Z,998.48
2018-09-15T04:34:13.724Z,998.49
2018-09-15T04:35:13.816Z,998.48
2018-09-15T04:36:13.912Z,998.50
2018-09-15T04:37:14.005Z,998.45
2018-09-15T04:38:14.096Z,998.45
2018-09-15T04:39:14.189Z,998.47
2018-09-15T04:40:14.287Z,998.43
2018-09-15T04:41:14.376Z,998.42
2018-09-15T04:42:14.463Z,998.44
2018-09-15T04:43:14.559Z,998.46
2018-09-15T04:44:14.652Z,998.45
2018-09-15T04:45:14.751Z,998.48
2018-09-15T04:46:14.839Z,998.52
2018-09-15T04:47:14.931Z,998.48
2018-09-15T04:48:15.040Z,998.53
2018-09-15T04:49:15.134Z,998.53
2018-09-15T04:50:15.227Z,998.54
2018-09-15T04:51:15.318Z,998.54
2018-09-15T04:52:15.413Z,998.56
2018-09-15T04:53:15.505Z,998.58
2018-09-15T04:54:15.595Z,998.60
2018-09-15T04:55:15.689Z,998.62
2018-09-15T04:56:15.781Z,998.61
2018-09-15T04:57:15.871Z,998.64
2018-09-15T04:58:15.965Z,998.62
2018-09-15T04:59:16.063Z,998.63
2018-09-15T05:00:16.152Z,998.65
2018-09-15T05:01:16.247Z,998.65
2018-09-15T05:02:16.339Z,998.72
2018-09-15T05:03:16.434Z,998.69
2018-09-15T05:04:16.522Z,998.73
2018-09-15T05:05:16.623Z,998.78
2018-09-15T05:06:16.708Z,998.77
2018-09-15T05:07:16.798Z,998.77
2018-09-15T05:08:16.894Z,998.81
2018-09-15T05:09:16.985Z,998.79
2018-09-15T05:10:17.077Z,998.85
2018-09-15T05:11:17.172Z,998.84
2018-09-15T05:12:17.279Z,998.80
2018-09-15T05:13:17.359Z,998.84
2018-09-15T05:14:17.450Z,998.86
2018-09-15T05:15:17.543Z,998.86
2018-09-15T05:16:17.639Z,998.90
2018-09-15T05:17:17.728Z,998.86
2018-09-15T05:18:17.819Z,998.87
2018-09-15T05:19:17.915Z,998.90
2018-09-15T05:20:18.025Z,998.93
2018-09-15T05:21:18.115Z,998.90
2018-09-15T05:22:18.204Z,998.91
2018-09-15T05:23:18.312Z,998.94
2018-09-15T05:24:18.403Z,998.91
2018-09-15T05:25:18.501Z,998.94
2018-09-15T05:26:18.587Z,998.95
2018-09-15T05:27:18.680Z,998.99
2018-09-15T05:28:18.773Z,998.92
2018-09-15T05:29:18.868Z,998.96
2018-09-15T05:30:18.961Z,998.95
2018-09-15T05:31:19.059Z,998.98
2018-09-15T05:32:19.145Z,998.97
2018-09-15T05:33:19.240Z,998.97
2018-09-15T05:34:19.330Z,998.97
2018-09-15T05:35:19.423Z,998.98
2018-09-15T05:36:19.517Z,998.97
2018-09-15T05:37:19.608Z,998.97
2018-09-15T05:38:19.703Z,998.96
2018-09-15T05:39:19.797Z,998.93
2018-09-15T05:40:19.887Z,998.95
2018-09-15T05:41:19.983Z,998.99
2018-09-15T05:42:20.072Z,998.98
2018-09-15T05:43:20.165Z,999.03
2018-09-15T05:44:20.256Z,999.07
2018-09-15T05:45:20.348Z,999.05
2018-09-15T05:46:20.447Z,999.11
2018-09-15T05:47:20.537Z,999.07
2018-09-15T05:48:20.629Z,999.07
2018-09-15T05:49:20.722Z,999.11
2018-09-15T05:50:20.816Z,999.08
2018-09-15T05:51:20.908Z,999.11
2018-09-15T05:52:21.002Z,999.09
2018-09-15T05:53:21.098Z,999.11
2018-09-15T05:54:21.179Z,999.09
2018-09-15T05:55:21.272Z,999.06
2018-09-15T05:56:21.371Z,999.07
2018-09-15T05:57:21.460Z,999.11
2018-09-15T05:58:21.582Z,999.15
2018-09-15T05:59:21.649Z,999.15
2018-09-15T06:00:21.760Z,999.14
2018-09-15T06:01:21.830Z,999.14
2018-09-15T06:02:21.923Z,999.14
2018-09-15T06:03:22.018Z,999.16
2018-09-15T06:04:22.113Z,999.17
2018-09-15T06:05:22.195Z,999.16
2018-09-15T06:06:22.291Z,999.14
2018-09-15T06:07:22.386Z,999.17
2018-09-15T06:08:22.476Z,999.18
2018-09-15T06:09:22.567Z,999.17
2018-09-15T06:10:22.665Z,999.20
2018-09-15T06:11:22.754Z,999.22
2018-09-15T06:12:22.848Z,999.24
2018-09-15T06:13:22.942Z,999.21
2018-09-15T06:14:23.032Z,999.25
2018-09-15T06:15:23.125Z,999.26
2018-09-15T06:16:23.219Z,999.33
2018-09-15T06:17:23.313Z,999.35
2018-09-15T06:18:23.405Z,999.38
2018-09-15T06:19:23.499Z,999.43
2018-09-15T06:20:23.592Z,999.42
2018-09-15T06:21:23.686Z,999.44
2018-09-15T06:22:23.780Z,999.48
2018-09-15T06:23:23.872Z,999.54
2018-09-15T06:24:23.965Z,999.58
2018-09-15T06:25:24.061Z,999.51
2018-09-15T06:26:24.145Z,999.54
2018-09-15T06:27:24.237Z,999.57
2018-09-15T06:28:24.337Z,999.59
2018-09-15T06:29:24.428Z,999.58
2018-09-15T06:30:24.521Z,999.59
2018-09-15T06:31:24.629Z,999.64
2018-09-15T06:32:24.728Z,999.65
2018-09-15T06:33:24.816Z,999.64
2018-09-15T06:34:24.909Z,999.65
2018-09-15T06:35:25.004Z,999.63
2018-09-15T06:36:25.142Z,999.60
2018-09-15T06:37:25.193Z,999.59
2018-09-15T06:38:25.277Z,999.58
2018-09-15T06:39:25.436Z,999.60
2018-09-15T06:40:25.478Z,999.59
2018-09-15T06:41:25.577Z,999.63
2018-09-15T06:42:25.670Z,999.68
2018-09-15T06:43:25.769Z,999.66
2018-09-15T06:44:25.861Z,999.66
2018-09-15T06:45:25.971Z,999.67
2018-09-15T06:46:26.052Z,999.68
2018-09-15T06:47:26.149Z,999.67
2018-09-15T06:48:26.242Z,999.68
2018-09-15T06:49:26.339Z,999.71
2018-09-15T06:50:26.435Z,999.72
2018-09-15T06:51:26.536Z,999.72
2018-09-15T06:52:26.624Z,999.74
2018-09-15T06:53:26.719Z,999.77
2018-09-15T06:54:26.814Z,999.75
2018-09-15T06:55:26.906Z,999.81
2018-09-15T06:56:27.010Z,999.83
2018-09-15T06:57:27.110Z,999.83
2018-09-15T06:58:27.197Z,999.81
2018-09-15T06:59:27.291Z,999.84
2018-09-15T07:00:27.387Z,999.86
2018-09-15T07:01:27.485Z,999.87
2018-09-15T07:02:27.578Z,999.90
2018-09-15T07:03:27.673Z,999.91
2018-09-15T07:04:27.790Z,999.92
2018-09-15T07:05:27.881Z,999.92
2018-09-15T07:06:27.978Z,999.92
2018-09-15T07:07:28.079Z,999.93
2018-09-15T07:08:28.171Z,999.95
2018-09-15T07:09:28.265Z,999.96
2018-09-15T07:10:28.362Z,999.99
2018-09-15T07:11:28.467Z,999.99
2018-09-15T07:12:28.556Z,999.99
2018-09-15T07:13:28.651Z,999.99
2018-09-15T07:14:28.744Z,999.98
2018-09-15T07:15:28.843Z,999.95
2018-09-15T07:16:28.936Z,999.94
2018-09-15T07:17:29.033Z,999.98
2018-09-15T07:18:29.129Z,999.95
2018-09-15T07:19:29.220Z,999.94
2018-09-15T07:20:29.316Z,999.92
2018-09-15T07:21:29.411Z,999.94
2018-09-15T07:22:29.507Z,999.98
2018-09-15T07:23:29.605Z,999.99
2018-09-15T07:24:29.699Z,999.98
2018-09-15T07:25:29.794Z,999.96
2018-09-15T07:26:29.890Z,1000.00
2018-09-15T07:27:29.984Z,999.96
2018-09-15T07:28:30.083Z,999.97
2018-09-15T07:29:30.178Z,999.98
2018-09-15T07:30:30.277Z,1000.03
2018-09-15T07:31:30.377Z,1000.06
2018-09-15T07:32:30.457Z,1000.06
2018-09-15T07:33:30.553Z,1000.04
2018-09-15T07:34:30.648Z,1000.04
2018-09-15T07:35:30.744Z,1000.06
2018-09-15T07:36:30.839Z,1000.03
2018-09-15T07:37:30.974Z,1000.07
2018-09-15T07:38:31.041Z,1000.03
2018-09-15T07:39:31.137Z,1000.10
2018-09-15T07:40:31.234Z,1000.07
2018-09-15T07:41:31.329Z,1000.10
2018-09-15T07:42:31.455Z,1000.12
2018-09-15T07:43:31.544Z,1000.11
2018-09-15T07:44:31.660Z,1000.08
2018-09-15T07:45:31.756Z,1000.07
2018-09-15T07:46:31.850Z,1000.07
2018-09-15T07:47:31.945Z,1000.07
2018-09-15T07:48:32.042Z,1000.05
2018-09-15T07:49:32.138Z,1000.06
2018-09-15T07:50:32.232Z,1000.12
2018-09-15T07:51:32.388Z,1000.11
2018-09-15T07:52:32.426Z,1000.14
2018-09-15T07:53:32.526Z,1000.17
2018-09-15T07:54:32.618Z,1000.18
2018-09-15T07:55:32.716Z,1000.18
2018-09-15T07:56:32.811Z,1000.22
2018-09-15T07:57:32.983Z,1000.25
2018-09-15T07:58:33.003Z,1000.29
2018-09-15T07:59:33.098Z,1000.28
2018-09-15T08:00:33.195Z,1000.26
2018-09-15T08:01:33.291Z,1000.28
2018-09-15T08:02:33.384Z,1000.21
2018-09-15T08:03:33.484Z,1000.22
2018-09-15T08:04:33.592Z,1000.18
2018-09-15T08:05:33.687Z,1000.16
2018-09-15T08:06:33.787Z,1000.21
2018-09-15T08:07:33.885Z,1000.14
2018-09-15T08:08:33.978Z,1000.17
2018-09-15T08:09:34.074Z,1000.19
2018-09-15T08:10:34.279Z,1000.17
2018-09-15T08:11:34.257Z,1000.19
2018-09-15T08:12:34.347Z,1000.12
2018-09-15T08:13:34.444Z,1000.15
2018-09-15T08:14:34.543Z,1000.11
2018-09-15T08:15:34.638Z,1000.11
2018-09-15T08:16:34.733Z,1000.13
2018-09-15T08:17:34.829Z,1000.15
2018-09-15T08:18:34.927Z,1000.16
2018-09-15T08:19:35.023Z,1000.13
2018-09-15T08:20:35.128Z,1000.11
2018-09-15T08:21:35.214Z,1000.13
2018-09-15T08:22:35.326Z,1000.15
2018-09-15T08:23:35.421Z,1000.15
2018-09-15T08:24:35.532Z,1000.18
2018-09-15T08:25:35.630Z,1000.14
2018-09-15T08:26:35.791Z,1000.15
2018-09-15T08:27:35.825Z,1000.16
2018-09-15T08:28:35.923Z,1000.10
2018-09-15T08:29:36.017Z,1000.08
2018-09-15T08:30:36.116Z,1000.14
2018-09-15T08:31:36.211Z,1000.14
2018-09-15T08:32:36.308Z,1000.16
2018-09-15T08:33:36.404Z,1000.13
2018-09-15T08:34:36.501Z,1000.14
2018-09-15T08:35:36.596Z,1000.19
2018-09-15T08:36:36.692Z,1000.17
2018-09-15T08:37:36.800Z,1000.14
2018-09-15T08:38:36.881Z,1000.17
2018-09-15T08:39:36.977Z,1000.20
2018-09-15T08:40:37.074Z,1000.19
2018-09-15T08:41:37.171Z,1000.21
2018-09-15T08:42:37.272Z,1000.20
2018-09-15T08:43:37.365Z,1000.20
2018-09-15T08:44:37.473Z,1000.19
2018-09-15T08:45:37.568Z,1000.19
2018-09-15T08:46:37.667Z,1000.18
2018-09-15T08:47:37.764Z,1000.20
2018-09-15T08:48:37.864Z,1000.18
2018-09-15T08:49:37.959Z,1000.17
2018-09-15T08:50:38.059Z,1000.16
2018-09-15T08:51:38.152Z,1000.12
2018-09-15T08:52:38.251Z,1000.13
2018-09-15T08:53:38.348Z,1000.20
2018-09-15T08:54:38.444Z,1000.20
2018-09-15T08:55:38.546Z,1000.20
2018-09-15T08:56:38.647Z,1000.15
2018-09-15T08:57:38.740Z,1000.18
2018-09-15T08:58:38.842Z,1000.16
2018-09-15T08:59:38.934Z,1000.11
2018-09-15T09:00:39.031Z,1000.09
2018-09-15T09:01:39.131Z,1000.09
2018-09-15T09:02:39.227Z,1000.04
2018-09-15T09:03:39.358Z,1000.03
2018-09-15T09:04:39.420Z,1000.05
2018-09-15T09:05:39.520Z,1000.09
2018-09-15T09:06:39.617Z,1000.04
2018-09-15T09:07:39.713Z,1000.12
2018-09-15T09:08:39.812Z,1000.15
2018-09-15T09:09:39.907Z,1000.20
2018-09-15T09:10:40.005Z,1000.22
2018-09-15T09:11:40.124Z,1000.18
2018-09-15T09:12:40.219Z,1000.21
2018-09-15T09:13:40.320Z,1000.20
2018-09-15T09:14:40.416Z,1000.18
2018-09-15T09:15:40.512Z,1000.18
2018-09-15T09:16:40.616Z,1000.09
2018-09-15T09:17:40.709Z,1000.18
2018-09-15T09:18:40.806Z,1000.12
2018-09-15T09:19:40.904Z,1000.22
2018-09-15T09:20:41.002Z,1000.22
2018-09-15T09:21:41.099Z,1000.23
2018-09-15T09:22:41.198Z,1000.30
2018-09-15T09:23:41.294Z,1000.22
2018-09-15T09:24:41.393Z,1000.28
2018-09-15T09:25:41.517Z,1000.35
2018-09-15T09:26:41.672Z,1000.22
2018-09-15T09:27:41.692Z,1000.20
2018-09-15T09:28:41.786Z,1000.24
2018-09-15T09:29:41.884Z,1000.25
2018-09-15T09:30:41.979Z,1000.23
2018-09-15T09:31:42.082Z,1000.20
2018-09-15T09:32:42.177Z,1000.29
2018-09-15T09:33:42.272Z,1000.31
2018-09-15T09:34:42.371Z,1000.32
2018-09-15T09:35:42.472Z,1000.32
2018-09-15T09:36:42.567Z,1000.31
2018-09-15T09:37:42.664Z,1000.22
2018-09-15T09:38:42.769Z,1000.22
2018-09-15T09:39:42.869Z,1000.23
2018-09-15T09:40:42.965Z,1000.25
2018-09-15T09:41:51.719Z,1000.24
2018-09-15T09:42:43.192Z,1000.25
2018-09-15T09:43:43.292Z,1000.24
2018-09-15T09:44:43.407Z,1000.22
2018-09-15T09:45:43.510Z,1000.17
2018-09-15T09:46:43.600Z,1000.20
2018-09-15T09:47:43.700Z,1000.13
2018-09-15T09:48:43.797Z,1000.15
2018-09-15T09:49:43.898Z,1000.17
2018-09-15T09:50:43.993Z,1000.16
2018-09-15T09:51:44.101Z,1000.21
2018-09-15T09:52:44.187Z,1000.21
2018-09-15T09:53:44.289Z,1000.26
2018-09-15T09:54:44.385Z,1000.29
2018-09-15T09:55:44.484Z,1000.23
2018-09-15T09:56:44.580Z,1000.27
2018-09-15T09:57:44.681Z,1000.31
2018-09-15T09:58:44.781Z,1000.25
2018-09-15T09:59:44.883Z,1000.28
2018-09-15T10:00:44.979Z,1000.19
2018-09-15T10:01:45.073Z,1000.23
2018-09-15T10:02:45.173Z,1000.24
2018-09-15T10:03:45.271Z,1000.31
2018-09-15T10:04:45.366Z,1000.24
2018-09-15T10:05:45.463Z,1000.23
2018-09-15T10:06:45.562Z,1000.19
2018-09-15T10:07:45.661Z,1000.23
2018-09-15T10:08:45.762Z,1000.30
2018-09-15T10:09:45.862Z,1000.32
2018-09-15T10:10:45.957Z,1000.26
2018-09-15T10:11:46.056Z,1000.26
2018-09-15T10:12:46.154Z,1000.20
2018-09-15T10:13:46.254Z,1000.17
2018-09-15T10:14:46.399Z,1000.21
2018-09-15T10:15:46.558Z,1000.16
2018-09-15T10:16:46.593Z,1000.14
2018-09-15T10:17:46.691Z,1000.20
2018-09-15T10:18:46.786Z,1000.20
2018-09-15T10:19:46.884Z,1000.13
2018-09-15T10:20:46.987Z,1000.13
2018-09-15T10:21:47.110Z,1000.08
2018-09-15T10:22:47.185Z,1000.08
2018-09-15T10:23:47.284Z,1000.10
2018-09-15T10:24:47.383Z,1000.10
2018-09-15T10:25:47.480Z,1000.04
2018-09-15T10:26:47.585Z,1000.01
2018-09-15T10:27:47.677Z,1000.06
2018-09-15T10:28:47.775Z,999.96
2018-09-15T10:29:47.892Z,1000.02
2018-09-15T10:30:47.993Z,1000.01
2018-09-15T10:31:48.093Z,999.98
2018-09-15T10:32:48.197Z,999.98
2018-09-15T10:33:48.292Z,1000.03
2018-09-15T10:34:48.388Z,1000.02
2018-09-15T10:35:48.492Z,1000.00
2018-09-15T10:36:48.611Z,1000.02
2018-09-15T10:37:48.706Z,1000.03
2018-09-15T10:38:48.807Z,1000.03
2018-09-15T10:39:48.904Z,1000.07
2018-09-15T10:40:49.014Z,1000.02
2018-09-15T10:41:49.114Z,1000.11
2018-09-15T10:42:49.207Z,1000.03
2018-09-15T10:43:49.321Z,1000.01
2018-09-15T10:44:49.419Z,1000.00
2018-09-15T10:45:49.523Z,1000.02
2018-09-15T10:46:49.615Z,1000.01
2018-09-15T10:47:49.716Z,999.98
2018-09-15T10:48:49.812Z,999.99
2018-09-15T10:49:49.911Z,1000.06
2018-09-15T10:50:50.012Z,1000.00
2018-09-15T10:51:50.107Z,1000.02
2018-09-15T10:52:50.213Z,999.99
2018-09-15T10:53:50.304Z,1000.02
2018-09-15T10:54:50.405Z,999.97
2018-09-15T10:55:50.507Z,1000.05
2018-09-15T10:56:50.604Z,1000.07
2018-09-15T10:57:50.703Z,1000.00
2018-09-15T10:58:50.837Z,1000.00
2018-09-15T10:59:50.898Z,1000.02
2018-09-15T11:00:51.013Z,1000.03
2018-09-15T11:01:51.094Z,1000.03
2018-09-15T11:02:51.195Z,1000.03
2018-09-15T11:03:51.291Z,1000.01
2018-09-15T11:04:51.392Z,1000.02
2018-09-15T11:05:51.549Z,1000.04
2018-09-15T11:06:51.577Z,1000.04
2018-09-15T11:07:51.683Z,1000.03
2018-09-15T11:08:51.782Z,1000.14
2018-09-15T11:09:52.276Z,1000.12
2018-09-15T11:10:51.995Z,1000.17
2018-09-15T11:11:52.096Z,1000.08
2018-09-15T11:12:52.299Z,1000.08
2018-09-15T11:13:52.438Z,1000.16
2018-09-15T11:14:52.356Z,1000.13
2018-09-15T11:15:52.579Z,1000.11
2018-09-15T11:16:52.547Z,1000.08
2018-09-15T11:17:52.646Z,1000.11
2018-09-15T11:18:52.803Z,1000.11
2018-09-15T11:19:52.878Z,1000.13
2018-09-15T11:20:52.980Z,1000.15
2018-09-15T11:21:53.072Z,1000.10
2018-09-15T11:22:53.230Z,1000.11
2018-09-15T11:23:53.273Z,1000.12
2018-09-15T11:24:53.373Z,1000.12
2018-09-15T11:25:53.473Z,1000.11
2018-09-15T11:26:53.572Z,1000.09
2018-09-15T11:27:53.669Z,1000.15
2018-09-15T11:28:53.814Z,1000.13
2018-09-15T11:29:53.872Z,1000.14
2018-09-15T11:30:53.973Z,1000.16
2018-09-15T11:31:54.077Z,1000.16
2018-09-15T11:32:54.173Z,1000.16
2018-09-15T11:33:54.279Z,1000.18
2018-09-15T11:34:54.374Z,1000.15
2018-09-15T11:35:54.478Z,1000.17
2018-09-15T11:36:54.626Z,1000.14
2018-09-15T11:37:54.684Z,1000.15
2018-09-15T11:38:54.727Z,1000.17
2018-09-15T11:39:54.826Z,1000.16
2018-09-15T11:40:54.925Z,1000.18
2018-09-15T11:41:55.029Z,1000.17
2018-09-15T11:42:55.119Z,1000.16
2018-09-15T11:43:55.223Z,1000.14
2018-09-15T11:44:55.336Z,1000.15
2018-09-15T11:45:55.437Z,1000.14
2018-09-15T11:46:55.536Z,1000.14
2018-09-15T11:47:55.703Z,1000.11
2018-09-15T11:48:55.735Z,1000.12
2018-09-15T11:49:55.831Z,1000.09
2018-09-15T11:50:55.932Z,1000.08
2018-09-15T11:51:56.030Z,1000.15
2018-09-15T11:52:56.219Z,1000.17
2018-09-15T11:53:56.244Z,1000.16
2018-09-15T11:54:56.312Z,1000.20
2018-09-15T11:55:56.412Z,1000.20
2018-09-15T11:56:56.506Z,1000.22
2018-09-15T11:57:56.604Z,1000.10
2018-09-15T11:58:56.698Z,1000.09
2018-09-15T11:59:56.857Z,1000.10
2018-09-15T12:00:56.902Z,1000.11
2018-09-15T12:01:57.045Z,1000.10
2018-09-15T12:02:57.101Z,1000.08
2018-09-15T12:03:57.201Z,1000.10
2018-09-15T12:04:57.300Z,1000.15
2018-09-15T12:05:57.394Z,1000.16
2018-09-15T12:06:57.495Z,1000.12
2018-09-15T12:07:57.656Z,1000.14
2018-09-15T12:08:57.692Z,1000.02
2018-09-15T12:09:57.793Z,1000.01
2018-09-15T12:10:57.890Z,999.96
2018-09-15T12:11:57.993Z,1000.01
2018-09-15T12:12:58.099Z,1000.03
2018-09-15T12:13:58.203Z,1000.08
2018-09-15T12:14:58.298Z,1000.02
2018-09-15T12:16:06.235Z,1000.04
2018-09-15T12:17:08.116Z,1000.01
2018-09-15T12:17:58.587Z,1000.00
2018-09-15T12:18:58.709Z,999.98
2018-09-15T12:19:58.811Z,999.93
2018-09-15T12:20:58.907Z,999.97